Aviation Digital Data Service (ADDS)

Output produced by METARs form (0046 UTC 23 December 2014)
found at http://www.aviationweather.gov/adds/metars/
 
METAR text: KCCU 230035Z AUTO 29026G39KT BKN001 BKN012 OVC027 M11/M15 A2967 RMK AO2 PWINO
Conditions at: KCCU (RED CLIFF PASS , CO, US) observed 0035 UTC 23 December 2014
Temperature: -11.0°C (12°F)
Dewpoint: -15.0°C (5°F) [RH = 72%]
Pressure (altimeter): 29.67 inches Hg (1004.8 mb)
Winds: from the WNW (290 degrees) at 30 MPH (26 knots; 13.5 m/s)
gusting to 45 MPH (39 knots; 20.3 m/s)
Visibility: missing
Ceiling: 100 feet AGL
Clouds: broken clouds at 100 feet AGL
broken clouds at 1200 feet AGL
overcast cloud deck at 2700 feet AGL
Weather: automated observation with no human augmentation;
there may or may not be significant weather present at this time